sensor_id;sensor_type;location;lat;lon;timestamp;P1;durP1;ratioP1;P2;durP2;ratioP2
787;SDS011;16074;42.708;23.312;2022-12-24T00:01:32;131.82;;;89.93;;
787;SDS011;16074;42.708;23.312;2022-12-24T00:04:01;133.38;;;92.43;;
787;SDS011;16074;42.708;23.312;2022-12-24T00:06:29;122.63;;;81.93;;
787;SDS011;16074;42.708;23.312;2022-12-24T00:08:59;144.35;;;93.40;;
787;SDS011;16074;42.708;23.312;2022-12-24T00:11:27;113.78;;;76.65;;
787;SDS011;16074;42.708;23.312;2022-12-24T00:13:56;101.18;;;70.95;;
787;SDS011;16074;42.708;23.312;2022-12-24T00:16:24;111.65;;;72.68;;
787;SDS011;16074;42.708;23.312;2022-12-24T00:18:52;105.28;;;68.72;;
787;SDS011;16074;42.708;23.312;2022-12-24T00:21:21;95.22;;;62.88;;
787;SDS011;16074;42.708;23.312;2022-12-24T00:23:49;92.78;;;63.58;;
787;SDS011;16074;42.708;23.312;2022-12-24T00:26:19;110.10;;;76.03;;
787;SDS011;16074;42.708;23.312;2022-12-24T00:28:47;140.02;;;90.38;;
787;SDS011;16074;42.708;23.312;2022-12-24T00:31:16;126.00;;;83.75;;
787;SDS011;16074;42.708;23.312;2022-12-24T00:33:45;113.13;;;80.45;;
787;SDS011;16074;42.708;23.312;2022-12-24T00:36:14;120.60;;;78.72;;
787;SDS011;16074;42.708;23.312;2022-12-24T00:38:43;130.23;;;87.05;;
787;SDS011;16074;42.708;23.312;2022-12-24T00:41:12;119.90;;;83.15;;
787;SDS011;16074;42.708;23.312;2022-12-24T00:43:53;128.15;;;86.40;;
787;SDS011;16074;42.708;23.312;2022-12-24T00:46:23;127.30;;;82.88;;
787;SDS011;16074;42.708;23.312;2022-12-24T00:48:53;118.68;;;84.88;;
787;SDS011;16074;42.708;23.312;2022-12-24T00:51:21;107.25;;;78.40;;
787;SDS011;16074;42.708;23.312;2022-12-24T00:53:51;123.03;;;82.22;;
787;SDS011;16074;42.708;23.312;2022-12-24T00:56:19;112.10;;;79.38;;
787;SDS011;16074;42.708;23.312;2022-12-24T00:58:48;120.10;;;85.07;;
787;SDS011;16074;42.708;23.312;2022-12-24T01:01:18;116.75;;;80.30;;
787;SDS011;16074;42.708;23.312;2022-12-24T01:03:47;127.43;;;86.95;;
787;SDS011;16074;42.708;23.312;2022-12-24T01:06:18;133.32;;;90.63;;
787;SDS011;16074;42.708;23.312;2022-12-24T01:08:48;141.90;;;97.60;;
787;SDS011;16074;42.708;23.312;2022-12-24T01:11:17;139.45;;;95.32;;
787;SDS011;16074;42.708;23.312;2022-12-24T01:13:46;137.93;;;91.40;;
787;SDS011;16074;42.708;23.312;2022-12-24T01:16:15;138.15;;;94.40;;
787;SDS011;16074;42.708;23.312;2022-12-24T01:18:48;166.45;;;112.70;;
787;SDS011;16074;42.708;23.312;2022-12-24T01:21:18;195.70;;;123.70;;
787;SDS011;16074;42.708;23.312;2022-12-24T01:23:46;190.20;;;122.97;;
787;SDS011;16074;42.708;23.312;2022-12-24T01:26:14;185.63;;;116.80;;
787;SDS011;16074;42.708;23.312;2022-12-24T01:28:42;178.80;;;119.50;;
787;SDS011;16074;42.708;23.312;2022-12-24T01:31:11;170.68;;;116.45;;
787;SDS011;16074;42.708;23.312;2022-12-24T01:33:40;178.90;;;114.40;;
787;SDS011;16074;42.708;23.312;2022-12-24T01:36:11;182.40;;;116.88;;
787;SDS011;16074;42.708;23.312;2022-12-24T01:38:41;168.10;;;116.72;;
787;SDS011;16074;42.708;23.312;2022-12-24T01:41:13;167.30;;;110.07;;
787;SDS011;16074;42.708;23.312;2022-12-24T01:46:46;157.02;;;100.85;;
787;SDS011;16074;42.708;23.312;2022-12-24T01:49:16;151.75;;;102.10;;
787;SDS011;16074;42.708;23.312;2022-12-24T01:51:47;157.05;;;100.97;;
787;SDS011;16074;42.708;23.312;2022-12-24T01:54:20;148.07;;;97.20;;
787;SDS011;16074;42.708;23.312;2022-12-24T01:56:53;149.15;;;96.57;;
787;SDS011;16074;42.708;23.312;2022-12-24T01:59:25;149.00;;;94.03;;
787;SDS011;16074;42.708;23.312;2022-12-24T02:01:54;144.43;;;93.65;;
787;SDS011;16074;42.708;23.312;2022-12-24T02:04:24;136.48;;;88.65;;
787;SDS011;16074;42.708;23.312;2022-12-24T02:07:00;131.40;;;87.07;;
787;SDS011;16074;42.708;23.312;2022-12-24T02:09:29;119.55;;;78.65;;
787;SDS011;16074;42.708;23.312;2022-12-24T02:11:59;116.03;;;75.78;;
787;SDS011;16074;42.708;23.312;2022-12-24T02:14:28;122.63;;;83.82;;
787;SDS011;16074;42.708;23.312;2022-12-24T02:16:59;140.45;;;89.38;;
787;SDS011;16074;42.708;23.312;2022-12-24T02:19:47;125.20;;;78.18;;
787;SDS011;16074;42.708;23.312;2022-12-24T02:22:34;125.78;;;78.55;;
787;SDS011;16074;42.708;23.312;2022-12-24T02:25:21;125.18;;;80.05;;
787;SDS011;16074;42.708;23.312;2022-12-24T02:28:10;134.50;;;87.35;;
787;SDS011;16074;42.708;23.312;2022-12-24T02:30:49;137.38;;;90.03;;
787;SDS011;16074;42.708;23.312;2022-12-24T02:33:24;127.40;;;86.25;;
787;SDS011;16074;42.708;23.312;2022-12-24T02:35:59;120.40;;;80.40;;
787;SDS011;16074;42.708;23.312;2022-12-24T02:38:32;121.35;;;77.78;;
787;SDS011;16074;42.708;23.312;2022-12-24T02:41:10;104.97;;;67.18;;
787;SDS011;16074;42.708;23.312;2022-12-24T02:43:43;114.43;;;71.63;;
787;SDS011;16074;42.708;23.312;2022-12-24T02:46:16;120.43;;;73.82;;
787;SDS011;16074;42.708;23.312;2022-12-24T02:48:46;118.30;;;81.03;;
787;SDS011;16074;42.708;23.312;2022-12-24T02:51:16;132.07;;;87.55;;
787;SDS011;16074;42.708;23.312;2022-12-24T02:53:49;139.40;;;91.32;;
787;SDS011;16074;42.708;23.312;2022-12-24T02:56:24;152.15;;;94.93;;
787;SDS011;16074;42.708;23.312;2022-12-24T03:02:02;138.35;;;88.28;;
787;SDS011;16074;42.708;23.312;2022-12-24T03:04:45;136.40;;;86.30;;
787;SDS011;16074;42.708;23.312;2022-12-24T03:07:26;130.30;;;79.32;;
787;SDS011;16074;42.708;23.312;2022-12-24T03:10:03;109.30;;;71.85;;
787;SDS011;16074;42.708;23.312;2022-12-24T03:12:42;123.57;;;74.25;;
787;SDS011;16074;42.708;23.312;2022-12-24T03:15:14;94.28;;;69.35;;
787;SDS011;16074;42.708;23.312;2022-12-24T03:17:47;105.95;;;68.40;;
787;SDS011;16074;42.708;23.312;2022-12-24T03:20:19;108.97;;;67.55;;
787;SDS011;16074;42.708;23.312;2022-12-24T03:22:50;93.55;;;57.30;;
787;SDS011;16074;42.708;23.312;2022-12-24T03:25:19;82.60;;;54.13;;
787;SDS011;16074;42.708;23.312;2022-12-24T03:27:51;83.47;;;54.63;;
787;SDS011;16074;42.708;23.312;2022-12-24T03:30:20;84.10;;;54.17;;
787;SDS011;16074;42.708;23.312;2022-12-24T03:32:50;94.78;;;59.30;;
787;SDS011;16074;42.708;23.312;2022-12-24T03:35:18;88.93;;;58.80;;
787;SDS011;16074;42.708;23.312;2022-12-24T03:37:46;98.63;;;67.15;;
787;SDS011;16074;42.708;23.312;2022-12-24T03:40:15;115.07;;;66.97;;
787;SDS011;16074;42.708;23.312;2022-12-24T03:42:44;98.38;;;66.00;;
787;SDS011;16074;42.708;23.312;2022-12-24T03:45:12;112.25;;;63.03;;
787;SDS011;16074;42.708;23.312;2022-12-24T03:47:40;99.13;;;63.95;;
787;SDS011;16074;42.708;23.312;2022-12-24T03:50:10;97.80;;;61.10;;
787;SDS011;16074;42.708;23.312;2022-12-24T03:52:38;104.53;;;66.80;;
787;SDS011;16074;42.708;23.312;2022-12-24T03:55:07;98.55;;;61.65;;
787;SDS011;16074;42.708;23.312;2022-12-24T03:57:35;110.35;;;61.65;;
787;SDS011;16074;42.708;23.312;2022-12-24T04:00:04;95.25;;;63.63;;
787;SDS011;16074;42.708;23.312;2022-12-24T04:02:37;96.70;;;59.95;;
787;SDS011;16074;42.708;23.312;2022-12-24T04:05:06;100.00;;;61.58;;
787;SDS011;16074;42.708;23.312;2022-12-24T04:07:36;102.35;;;62.75;;
787;SDS011;16074;42.708;23.312;2022-12-24T04:10:05;94.85;;;61.10;;
787;SDS011;16074;42.708;23.312;2022-12-24T04:12:34;103.60;;;68.47;;
787;SDS011;16074;42.708;23.312;2022-12-24T04:15:03;123.63;;;80.55;;
787;SDS011;16074;42.708;23.312;2022-12-24T04:17:32;138.32;;;95.10;;
787;SDS011;16074;42.708;23.312;2022-12-24T04:20:00;126.82;;;76.88;;
787;SDS011;16074;42.708;23.312;2022-12-24T04:22:29;104.70;;;66.28;;
787;SDS011;16074;42.708;23.312;2022-12-24T04:24:59;98.55;;;62.15;;
787;SDS011;16074;42.708;23.312;2022-12-24T04:27:27;110.40;;;65.07;;
787;SDS011;16074;42.708;23.312;2022-12-24T04:29:56;110.38;;;64.40;;
787;SDS011;16074;42.708;23.312;2022-12-24T04:32:25;92.45;;;57.53;;
787;SDS011;16074;42.708;23.312;2022-12-24T04:34:53;95.38;;;56.53;;
787;SDS011;16074;42.708;23.312;2022-12-24T04:37:21;78.40;;;53.50;;
787;SDS011;16074;42.708;23.312;2022-12-24T04:39:50;70.28;;;48.08;;
787;SDS011;16074;42.708;23.312;2022-12-24T04:42:19;66.13;;;47.28;;
787;SDS011;16074;42.708;23.312;2022-12-24T04:44:47;76.55;;;47.78;;
787;SDS011;16074;42.708;23.312;2022-12-24T04:47:16;78.20;;;51.00;;
787;SDS011;16074;42.708;23.312;2022-12-24T04:49:44;74.35;;;47.22;;
787;SDS011;16074;42.708;23.312;2022-12-24T04:52:12;73.97;;;48.40;;
787;SDS011;16074;42.708;23.312;2022-12-24T04:54:40;77.60;;;53.00;;
787;SDS011;16074;42.708;23.312;2022-12-24T04:57:09;110.18;;;77.90;;
787;SDS011;16074;42.708;23.312;2022-12-24T04:59:38;111.05;;;71.68;;
787;SDS011;16074;42.708;23.312;2022-12-24T05:02:07;103.18;;;66.45;;
787;SDS011;16074;42.708;23.312;2022-12-24T05:04:35;105.70;;;67.93;;
787;SDS011;16074;42.708;23.312;2022-12-24T05:07:03;104.65;;;66.07;;
787;SDS011;16074;42.708;23.312;2022-12-24T05:09:32;108.47;;;66.45;;
787;SDS011;16074;42.708;23.312;2022-12-24T05:12:00;128.30;;;77.88;;
787;SDS011;16074;42.708;23.312;2022-12-24T05:14:28;116.07;;;76.25;;
787;SDS011;16074;42.708;23.312;2022-12-24T05:16:58;113.55;;;77.47;;
787;SDS011;16074;42.708;23.312;2022-12-24T05:19:26;120.78;;;74.35;;
787;SDS011;16074;42.708;23.312;2022-12-24T05:21:54;102.10;;;66.97;;
787;SDS011;16074;42.708;23.312;2022-12-24T05:24:36;116.50;;;67.35;;
787;SDS011;16074;42.708;23.312;2022-12-24T05:27:22;94.97;;;62.97;;
787;SDS011;16074;42.708;23.312;2022-12-24T05:29:51;98.22;;;63.42;;
787;SDS011;16074;42.708;23.312;2022-12-24T05:32:21;113.20;;;63.70;;
787;SDS011;16074;42.708;23.312;2022-12-24T05:34:49;113.93;;;64.32;;
787;SDS011;16074;42.708;23.312;2022-12-24T05:37:17;100.68;;;62.90;;
787;SDS011;16074;42.708;23.312;2022-12-24T05:39:45;104.07;;;58.67;;
787;SDS011;16074;42.708;23.312;2022-12-24T05:42:13;94.35;;;57.15;;
787;SDS011;16074;42.708;23.312;2022-12-24T05:44:42;110.40;;;63.42;;
787;SDS011;16074;42.708;23.312;2022-12-24T05:47:10;106.75;;;59.72;;
787;SDS011;16074;42.708;23.312;2022-12-24T05:49:40;104.18;;;65.57;;
787;SDS011;16074;42.708;23.312;2022-12-24T05:52:08;119.03;;;67.63;;
787;SDS011;16074;42.708;23.312;2022-12-24T05:54:36;112.00;;;69.95;;
787;SDS011;16074;42.708;23.312;2022-12-24T05:57:04;102.40;;;64.00;;
787;SDS011;16074;42.708;23.312;2022-12-24T05:59:33;102.65;;;62.53;;
787;SDS011;16074;42.708;23.312;2022-12-24T06:02:02;98.30;;;64.22;;
787;SDS011;16074;42.708;23.312;2022-12-24T06:04:31;108.80;;;65.70;;
787;SDS011;16074;42.708;23.312;2022-12-24T06:07:00;106.25;;;65.40;;
787;SDS011;16074;42.708;23.312;2022-12-24T06:09:28;96.22;;;62.65;;
787;SDS011;16074;42.708;23.312;2022-12-24T06:11:57;107.10;;;65.15;;
787;SDS011;16074;42.708;23.312;2022-12-24T06:14:25;98.00;;;60.05;;
787;SDS011;16074;42.708;23.312;2022-12-24T06:16:53;98.38;;;60.13;;
787;SDS011;16074;42.708;23.312;2022-12-24T06:19:22;99.63;;;61.03;;
787;SDS011;16074;42.708;23.312;2022-12-24T06:21:50;94.57;;;61.65;;
787;SDS011;16074;42.708;23.312;2022-12-24T06:24:20;105.97;;;62.80;;
787;SDS011;16074;42.708;23.312;2022-12-24T06:26:48;108.90;;;62.90;;
787;SDS011;16074;42.708;23.312;2022-12-24T06:29:16;104.70;;;65.03;;
787;SDS011;16074;42.708;23.312;2022-12-24T06:31:44;96.25;;;67.45;;
787;SDS011;16074;42.708;23.312;2022-12-24T06:34:13;103.43;;;65.88;;
787;SDS011;16074;42.708;23.312;2022-12-24T06:36:41;103.47;;;71.13;;
787;SDS011;16074;42.708;23.312;2022-12-24T06:39:09;99.30;;;65.30;;
787;SDS011;16074;42.708;23.312;2022-12-24T06:41:39;97.90;;;65.07;;
787;SDS011;16074;42.708;23.312;2022-12-24T06:44:07;95.55;;;63.13;;
787;SDS011;16074;42.708;23.312;2022-12-24T06:46:36;104.05;;;68.70;;
787;SDS011;16074;42.708;23.312;2022-12-24T06:49:04;100.32;;;67.55;;
787;SDS011;16074;42.708;23.312;2022-12-24T06:51:32;97.85;;;61.75;;
787;SDS011;16074;42.708;23.312;2022-12-24T06:54:00;95.82;;;61.22;;
787;SDS011;16074;42.708;23.312;2022-12-24T06:56:29;99.38;;;64.47;;
787;SDS011;16074;42.708;23.312;2022-12-24T06:58:58;103.13;;;65.88;;
787;SDS011;16074;42.708;23.312;2022-12-24T07:01:31;98.93;;;65.20;;
787;SDS011;16074;42.708;23.312;2022-12-24T07:03:59;90.82;;;60.17;;
787;SDS011;16074;42.708;23.312;2022-12-24T07:06:28;97.28;;;57.95;;
787;SDS011;16074;42.708;23.312;2022-12-24T07:08:57;94.80;;;58.10;;
787;SDS011;16074;42.708;23.312;2022-12-24T07:11:25;98.15;;;63.15;;
787;SDS011;16074;42.708;23.312;2022-12-24T07:13:54;93.55;;;61.13;;
787;SDS011;16074;42.708;23.312;2022-12-24T07:16:23;102.45;;;67.25;;
787;SDS011;16074;42.708;23.312;2022-12-24T07:18:52;106.38;;;70.50;;
787;SDS011;16074;42.708;23.312;2022-12-24T07:21:20;110.03;;;74.20;;
787;SDS011;16074;42.708;23.312;2022-12-24T07:23:48;115.47;;;77.68;;
787;SDS011;16074;42.708;23.312;2022-12-24T07:26:17;122.78;;;88.25;;
787;SDS011;16074;42.708;23.312;2022-12-24T07:28:45;123.65;;;91.43;;
787;SDS011;16074;42.708;23.312;2022-12-24T07:31:13;128.48;;;88.63;;
787;SDS011;16074;42.708;23.312;2022-12-24T07:33:43;120.13;;;87.38;;
787;SDS011;16074;42.708;23.312;2022-12-24T07:36:14;130.15;;;86.68;;
787;SDS011;16074;42.708;23.312;2022-12-24T07:38:46;129.23;;;91.63;;
787;SDS011;16074;42.708;23.312;2022-12-24T07:41:14;116.68;;;90.07;;
787;SDS011;16074;42.708;23.312;2022-12-24T07:43:42;124.88;;;89.78;;
787;SDS011;16074;42.708;23.312;2022-12-24T07:46:11;109.70;;;85.13;;
787;SDS011;16074;42.708;23.312;2022-12-24T07:48:39;131.18;;;89.72;;
787;SDS011;16074;42.708;23.312;2022-12-24T07:51:09;117.97;;;85.70;;
787;SDS011;16074;42.708;23.312;2022-12-24T07:53:37;117.13;;;85.20;;
787;SDS011;16074;42.708;23.312;2022-12-24T07:56:12;119.60;;;84.00;;
787;SDS011;16074;42.708;23.312;2022-12-24T07:58:42;111.93;;;79.55;;
787;SDS011;16074;42.708;23.312;2022-12-24T08:01:10;105.40;;;76.05;;
787;SDS011;16074;42.708;23.312;2022-12-24T08:03:39;103.90;;;76.75;;
787;SDS011;16074;42.708;23.312;2022-12-24T08:06:07;112.80;;;79.50;;
787;SDS011;16074;42.708;23.312;2022-12-24T08:08:37;106.45;;;74.25;;
787;SDS011;16074;42.708;23.312;2022-12-24T08:11:06;107.13;;;73.65;;
787;SDS011;16074;42.708;23.312;2022-12-24T08:13:34;103.13;;;74.22;;
787;SDS011;16074;42.708;23.312;2022-12-24T08:16:02;112.35;;;74.15;;
787;SDS011;16074;42.708;23.312;2022-12-24T08:18:31;110.18;;;73.30;;
787;SDS011;16074;42.708;23.312;2022-12-24T08:21:00;105.45;;;70.88;;
787;SDS011;16074;42.708;23.312;2022-12-24T08:23:28;91.82;;;68.22;;
787;SDS011;16074;42.708;23.312;2022-12-24T08:25:58;102.13;;;70.95;;
787;SDS011;16074;42.708;23.312;2022-12-24T08:28:26;106.40;;;72.40;;
787;SDS011;16074;42.708;23.312;2022-12-24T08:30:54;103.45;;;71.25;;
787;SDS011;16074;42.708;23.312;2022-12-24T08:33:23;95.22;;;70.55;;
787;SDS011;16074;42.708;23.312;2022-12-24T08:35:52;108.07;;;73.35;;
787;SDS011;16074;42.708;23.312;2022-12-24T08:38:21;84.43;;;65.82;;
787;SDS011;16074;42.708;23.312;2022-12-24T08:40:51;98.82;;;68.72;;
787;SDS011;16074;42.708;23.312;2022-12-24T08:43:21;100.13;;;70.72;;
787;SDS011;16074;42.708;23.312;2022-12-24T08:45:52;98.82;;;69.75;;
787;SDS011;16074;42.708;23.312;2022-12-24T08:48:21;107.40;;;73.32;;
787;SDS011;16074;42.708;23.312;2022-12-24T08:50:49;93.60;;;69.10;;
787;SDS011;16074;42.708;23.312;2022-12-24T08:53:17;92.72;;;68.45;;
787;SDS011;16074;42.708;23.312;2022-12-24T08:55:45;93.65;;;68.15;;
787;SDS011;16074;42.708;23.312;2022-12-24T08:58:23;97.20;;;67.97;;
787;SDS011;16074;42.708;23.312;2022-12-24T09:00:51;90.68;;;69.60;;
787;SDS011;16074;42.708;23.312;2022-12-24T09:03:19;88.05;;;69.90;;
787;SDS011;16074;42.708;23.312;2022-12-24T09:05:53;93.57;;;72.50;;
787;SDS011;16074;42.708;23.312;2022-12-24T09:08:21;92.50;;;70.65;;
787;SDS011;16074;42.708;23.312;2022-12-24T09:10:49;103.28;;;72.95;;
787;SDS011;16074;42.708;23.312;2022-12-24T09:13:18;101.47;;;70.28;;
787;SDS011;16074;42.708;23.312;2022-12-24T09:15:52;103.95;;;73.60;;
787;SDS011;16074;42.708;23.312;2022-12-24T09:18:21;99.00;;;74.05;;
787;SDS011;16074;42.708;23.312;2022-12-24T09:20:49;104.03;;;76.53;;
787;SDS011;16074;42.708;23.312;2022-12-24T09:23:23;107.32;;;74.78;;
787;SDS011;16074;42.708;23.312;2022-12-24T09:25:51;104.03;;;74.18;;
787;SDS011;16074;42.708;23.312;2022-12-24T09:28:19;95.78;;;74.22;;
787;SDS011;16074;42.708;23.312;2022-12-24T09:30:56;95.85;;;73.15;;
787;SDS011;16074;42.708;23.312;2022-12-24T09:33:25;102.78;;;73.78;;
787;SDS011;16074;42.708;23.312;2022-12-24T09:35:54;101.63;;;73.82;;
787;SDS011;16074;42.708;23.312;2022-12-24T09:38:23;94.18;;;69.22;;
787;SDS011;16074;42.708;23.312;2022-12-24T09:40:52;97.63;;;66.88;;
787;SDS011;16074;42.708;23.312;2022-12-24T09:43:22;88.88;;;64.72;;
787;SDS011;16074;42.708;23.312;2022-12-24T09:45:55;79.95;;;59.42;;
787;SDS011;16074;42.708;23.312;2022-12-24T09:48:33;89.22;;;63.30;;
787;SDS011;16074;42.708;23.312;2022-12-24T09:51:07;74.25;;;56.95;;
787;SDS011;16074;42.708;23.312;2022-12-24T09:53:38;84.80;;;56.47;;
787;SDS011;16074;42.708;23.312;2022-12-24T09:56:10;74.95;;;55.88;;
787;SDS011;16074;42.708;23.312;2022-12-24T09:58:42;76.30;;;53.70;;
787;SDS011;16074;42.708;23.312;2022-12-24T10:01:15;61.22;;;50.60;;
787;SDS011;16074;42.708;23.312;2022-12-24T10:03:45;65.70;;;49.40;;
787;SDS011;16074;42.708;23.312;2022-12-24T10:06:15;70.70;;;51.88;;
787;SDS011;16074;42.708;23.312;2022-12-24T10:08:58;69.45;;;48.90;;
787;SDS011;16074;42.708;23.312;2022-12-24T10:11:35;68.85;;;50.55;;
787;SDS011;16074;42.708;23.312;2022-12-24T10:14:17;67.22;;;48.80;;
787;SDS011;16074;42.708;23.312;2022-12-24T10:16:56;76.45;;;52.92;;
787;SDS011;16074;42.708;23.312;2022-12-24T10:19:36;74.10;;;49.80;;
787;SDS011;16074;42.708;23.312;2022-12-24T10:22:15;78.82;;;52.92;;
787;SDS011;16074;42.708;23.312;2022-12-24T10:24:52;76.00;;;55.78;;
787;SDS011;16074;42.708;23.312;2022-12-24T10:27:28;69.72;;;51.58;;
787;SDS011;16074;42.708;23.312;2022-12-24T10:30:01;73.90;;;54.17;;
787;SDS011;16074;42.708;23.312;2022-12-24T10:32:43;80.75;;;55.92;;
787;SDS011;16074;42.708;23.312;2022-12-24T10:35:18;82.05;;;55.53;;
787;SDS011;16074;42.708;23.312;2022-12-24T10:37:49;75.45;;;53.72;;
787;SDS011;16074;42.708;23.312;2022-12-24T10:40:24;74.82;;;54.33;;
787;SDS011;16074;42.708;23.312;2022-12-24T10:42:58;79.85;;;57.08;;
787;SDS011;16074;42.708;23.312;2022-12-24T10:45:29;79.93;;;57.45;;
787;SDS011;16074;42.708;23.312;2022-12-24T10:48:06;72.63;;;56.53;;
787;SDS011;16074;42.708;23.312;2022-12-24T10:50:39;77.65;;;61.47;;
787;SDS011;16074;42.708;23.312;2022-12-24T10:53:13;82.00;;;62.22;;
787;SDS011;16074;42.708;23.312;2022-12-24T10:55:48;81.40;;;59.53;;
787;SDS011;16074;42.708;23.312;2022-12-24T10:58:17;85.78;;;61.88;;
787;SDS011;16074;42.708;23.312;2022-12-24T11:00:49;80.90;;;57.65;;
787;SDS011;16074;42.708;23.312;2022-12-24T11:03:22;89.15;;;62.47;;
787;SDS011;16074;42.708;23.312;2022-12-24T11:05:59;89.95;;;58.17;;
787;SDS011;16074;42.708;23.312;2022-12-24T11:08:30;75.80;;;56.63;;
787;SDS011;16074;42.708;23.312;2022-12-24T11:10:59;89.50;;;58.53;;
787;SDS011;16074;42.708;23.312;2022-12-24T11:13:29;82.05;;;57.08;;
787;SDS011;16074;42.708;23.312;2022-12-24T11:16:05;83.10;;;66.40;;
787;SDS011;16074;42.708;23.312;2022-12-24T11:18:45;77.78;;;57.42;;
787;SDS011;16074;42.708;23.312;2022-12-24T11:21:18;79.60;;;60.25;;
787;SDS011;16074;42.708;23.312;2022-12-24T11:23:49;85.50;;;59.05;;
787;SDS011;16074;42.708;23.312;2022-12-24T11:26:20;80.28;;;59.35;;
787;SDS011;16074;42.708;23.312;2022-12-24T11:29:03;86.80;;;64.13;;
787;SDS011;16074;42.708;23.312;2022-12-24T11:31:38;80.10;;;58.22;;
787;SDS011;16074;42.708;23.312;2022-12-24T11:37:06;82.60;;;56.38;;
787;SDS011;16074;42.708;23.312;2022-12-24T11:39:48;75.45;;;55.30;;
787;SDS011;16074;42.708;23.312;2022-12-24T11:42:21;71.80;;;58.35;;
787;SDS011;16074;42.708;23.312;2022-12-24T11:44:53;69.50;;;53.30;;
787;SDS011;16074;42.708;23.312;2022-12-24T11:47:33;68.28;;;53.85;;
787;SDS011;16074;42.708;23.312;2022-12-24T11:50:23;68.40;;;51.80;;
787;SDS011;16074;42.708;23.312;2022-12-24T11:52:55;66.28;;;45.15;;
787;SDS011;16074;42.708;23.312;2022-12-24T11:55:36;54.90;;;41.58;;
787;SDS011;16074;42.708;23.312;2022-12-24T11:58:17;55.80;;;40.88;;
787;SDS011;16074;42.708;23.312;2022-12-24T12:00:50;53.90;;;43.33;;
787;SDS011;16074;42.708;23.312;2022-12-24T12:03:26;59.00;;;42.80;;
787;SDS011;16074;42.708;23.312;2022-12-24T12:06:00;58.72;;;43.58;;
787;SDS011;16074;42.708;23.312;2022-12-24T12:08:31;56.08;;;43.33;;
787;SDS011;16074;42.708;23.312;2022-12-24T12:11:01;52.40;;;44.63;;
787;SDS011;16074;42.708;23.312;2022-12-24T12:13:36;57.08;;;44.17;;
787;SDS011;16074;42.708;23.312;2022-12-24T12:16:12;53.60;;;41.58;;
787;SDS011;16074;42.708;23.312;2022-12-24T12:18:45;55.00;;;41.33;;
787;SDS011;16074;42.708;23.312;2022-12-24T12:21:21;61.53;;;43.58;;
787;SDS011;16074;42.708;23.312;2022-12-24T12:23:54;50.58;;;41.22;;
787;SDS011;16074;42.708;23.312;2022-12-24T12:26:27;51.72;;;41.80;;
787;SDS011;16074;42.708;23.312;2022-12-24T12:28:58;53.70;;;44.47;;
787;SDS011;16074;42.708;23.312;2022-12-24T12:31:32;60.85;;;43.67;;
787;SDS011;16074;42.708;23.312;2022-12-24T12:34:04;59.00;;;45.42;;
787;SDS011;16074;42.708;23.312;2022-12-24T12:36:38;50.75;;;41.28;;
787;SDS011;16074;42.708;23.312;2022-12-24T12:39:10;53.22;;;42.72;;
787;SDS011;16074;42.708;23.312;2022-12-24T12:41:43;61.03;;;45.22;;
787;SDS011;16074;42.708;23.312;2022-12-24T12:44:24;63.15;;;44.67;;
787;SDS011;16074;42.708;23.312;2022-12-24T12:47:18;62.17;;;47.00;;
787;SDS011;16074;42.708;23.312;2022-12-24T12:49:59;67.05;;;49.67;;
787;SDS011;16074;42.708;23.312;2022-12-24T12:52:42;67.35;;;49.85;;
787;SDS011;16074;42.708;23.312;2022-12-24T12:55:24;68.72;;;52.85;;
787;SDS011;16074;42.708;23.312;2022-12-24T12:58:03;76.40;;;55.72;;
787;SDS011;16074;42.708;23.312;2022-12-24T13:00:38;75.10;;;55.30;;
787;SDS011;16074;42.708;23.312;2022-12-24T13:03:19;66.25;;;52.03;;
787;SDS011;16074;42.708;23.312;2022-12-24T13:09:14;59.67;;;47.72;;
787;SDS011;16074;42.708;23.312;2022-12-24T13:11:53;76.82;;;49.92;;
787;SDS011;16074;42.708;23.312;2022-12-24T13:14:49;70.00;;;49.42;;
787;SDS011;16074;42.708;23.312;2022-12-24T13:17:46;69.15;;;52.85;;
787;SDS011;16074;42.708;23.312;2022-12-24T13:20:29;65.70;;;52.20;;
787;SDS011;16074;42.708;23.312;2022-12-24T13:22:59;68.07;;;53.45;;
787;SDS011;16074;42.708;23.312;2022-12-24T13:25:39;73.20;;;53.42;;
787;SDS011;16074;42.708;23.312;2022-12-24T13:33:59;76.82;;;55.72;;
787;SDS011;16074;42.708;23.312;2022-12-24T13:42:47;79.88;;;55.80;;
787;SDS011;16074;42.708;23.312;2022-12-24T13:48:24;78.38;;;57.22;;
787;SDS011;16074;42.708;23.312;2022-12-24T13:50:59;81.85;;;58.88;;
787;SDS011;16074;42.708;23.312;2022-12-24T13:53:44;74.43;;;59.33;;
787;SDS011;16074;42.708;23.312;2022-12-24T13:56:20;83.80;;;62.80;;
787;SDS011;16074;42.708;23.312;2022-12-24T13:58:54;69.43;;;58.40;;
787;SDS011;16074;42.708;23.312;2022-12-24T14:01:37;80.15;;;58.15;;
787;SDS011;16074;42.708;23.312;2022-12-24T14:04:09;82.40;;;60.58;;
787;SDS011;16074;42.708;23.312;2022-12-24T14:06:51;86.93;;;62.83;;
787;SDS011;16074;42.708;23.312;2022-12-24T14:09:21;77.20;;;62.25;;
787;SDS011;16074;42.708;23.312;2022-12-24T14:14:57;76.65;;;60.67;;
787;SDS011;16074;42.708;23.312;2022-12-24T14:17:25;90.22;;;62.67;;
787;SDS011;16074;42.708;23.312;2022-12-24T14:19:57;91.72;;;62.78;;
787;SDS011;16074;42.708;23.312;2022-12-24T14:22:27;81.70;;;62.45;;
787;SDS011;16074;42.708;23.312;2022-12-24T14:25:00;112.22;;;85.15;;
787;SDS011;16074;42.708;23.312;2022-12-24T14:27:32;98.97;;;70.32;;
787;SDS011;16074;42.708;23.312;2022-12-24T14:30:07;93.63;;;69.45;;
787;SDS011;16074;42.708;23.312;2022-12-24T14:32:45;98.07;;;70.50;;
787;SDS011;16074;42.708;23.312;2022-12-24T14:35:17;94.82;;;68.47;;
787;SDS011;16074;42.708;23.312;2022-12-24T14:37:47;98.35;;;75.53;;
787;SDS011;16074;42.708;23.312;2022-12-24T14:40:18;124.00;;;89.35;;
787;SDS011;16074;42.708;23.312;2022-12-24T14:42:53;99.20;;;76.57;;
787;SDS011;16074;42.708;23.312;2022-12-24T14:45:31;110.18;;;81.57;;
787;SDS011;16074;42.708;23.312;2022-12-24T14:48:07;152.25;;;89.70;;
787;SDS011;16074;42.708;23.312;2022-12-24T14:50:57;122.50;;;81.40;;
787;SDS011;16074;42.708;23.312;2022-12-24T14:53:43;98.53;;;69.93;;
787;SDS011;16074;42.708;23.312;2022-12-24T14:56:29;112.43;;;77.93;;
787;SDS011;16074;42.708;23.312;2022-12-24T14:58:58;55.60;;;42.10;;
787;SDS011;16074;42.708;23.312;2022-12-24T15:01:31;59.80;;;45.08;;
787;SDS011;16074;42.708;23.312;2022-12-24T15:04:01;50.53;;;34.72;;
787;SDS011;16074;42.708;23.312;2022-12-24T15:06:32;42.13;;;31.02;;
787;SDS011;16074;42.708;23.312;2022-12-24T15:09:03;35.55;;;27.58;;
787;SDS011;16074;42.708;23.312;2022-12-24T15:11:32;31.27;;;21.35;;
787;SDS011;16074;42.708;23.312;2022-12-24T15:14:01;26.13;;;19.85;;
787;SDS011;16074;42.708;23.312;2022-12-24T15:16:29;17.10;;;13.68;;
787;SDS011;16074;42.708;23.312;2022-12-24T15:19:04;16.20;;;13.52;;
787;SDS011;16074;42.708;23.312;2022-12-24T15:21:35;14.57;;;11.30;;
787;SDS011;16074;42.708;23.312;2022-12-24T15:24:21;14.10;;;9.38;;
787;SDS011;16074;42.708;23.312;2022-12-24T15:26:50;13.60;;;11.63;;